Time;durP1;ratioP1;P1;durP2;ratioP2;P2;SDS_P1;SDS_P2;PMS_P1;PMS_P2;Temp;Humidity;BMP_temperature;BMP_pressure;BME280_temperature;BME280_humidity;BME280_pressure;Samples;Min_cycle;Max_cycle;Signal;HPM_P1;HPM_P2
2023/07/18 00:00:37;;;;;;;4.18;2.08;;;15.80;99.90;;;;;;5049712;28;20032;-74
2023/07/18 00:03:03;;;;;;;6.88;2.22;;;15.80;99.90;;;;;;5047542;28;20059;-73
2023/07/18 00:05:30;;;;;;;5.90;1.52;;;15.80;99.90;;;;;;5049362;28;20073;-73
2023/07/18 00:07:56;;;;;;;3.90;1.40;;;15.80;99.90;;;;;;5047469;28;20460;-75
2023/07/18 00:10:22;;;;;;;3.67;1.40;;;15.80;99.90;;;;;;5049109;28;20131;-73
2023/07/18 00:12:49;;;;;;;2.55;1.10;;;15.90;99.90;;;;;;5049377;28;20029;-73
2023/07/18 00:15:16;;;;;;;4.22;1.30;;;15.90;99.90;;;;;;5048696;28;20037;-73
2023/07/18 00:17:43;;;;;;;5.32;1.42;;;15.80;99.90;;;;;;5049281;28;20021;-73
2023/07/18 00:20:17;;;;;;;3.70;1.40;;;15.80;99.90;;;;;;5048621;28;20029;-73
2023/07/18 00:22:49;;;;;;;3.92;1.40;;;15.80;99.90;;;;;;5049429;28;20033;-74
2023/07/18 00:25:19;;;;;;;2.78;1.85;;;15.70;99.90;;;;;;5048969;28;20033;-72
2023/07/18 00:27:53;;;;;;;3.45;1.60;;;15.70;99.90;;;;;;5049202;28;20394;-72
2023/07/18 00:30:20;;;;;;;6.03;2.50;;;15.70;99.90;;;;;;5049092;28;20025;-73
2023/07/18 00:32:46;;;;;;;5.63;2.15;;;15.60;99.90;;;;;;5049203;28;20088;-73
2023/07/18 00:35:14;;;;;;;4.75;2.55;;;15.60;99.90;;;;;;5048846;28;20430;-73
2023/07/18 00:37:40;;;;;;;4.50;1.90;;;15.60;99.90;;;;;;5049386;28;20389;-73
2023/07/18 00:40:11;;;;;;;5.85;3.75;;;15.60;99.90;;;;;;5048860;28;20099;-73
2023/07/18 00:42:41;;;;;;;4.50;3.25;;;15.60;99.90;;;;;;5048876;28;20032;-74
2023/07/18 00:45:08;;;;;;;8.32;3.63;;;15.50;99.90;;;;;;5048822;28;20029;-73
2023/07/18 00:47:42;;;;;;;9.32;3.83;;;15.50;99.90;;;;;;5048568;28;20091;-72
2023/07/18 00:50:15;;;;;;;6.15;3.55;;;15.50;99.90;;;;;;5049022;28;20033;-73
2023/07/18 00:52:49;;;;;;;6.07;2.53;;;15.40;99.90;;;;;;5049193;28;20077;-73
2023/07/18 00:55:16;;;;;;;2.47;1.55;;;15.40;99.90;;;;;;5048153;28;20028;-72
2023/07/18 00:57:43;;;;;;;6.93;1.40;;;15.30;99.90;;;;;;5049792;28;20028;-73
2023/07/18 01:00:13;;;;;;;6.80;1.75;;;15.20;99.90;;;;;;5049160;28;20086;-74
2023/07/18 01:02:41;;;;;;;5.05;1.25;;;15.20;99.90;;;;;;5049668;28;20323;-73
2023/07/18 01:05:08;;;;;;;4.88;1.80;;;15.10;99.90;;;;;;5049447;28;20037;-74
2023/07/18 01:07:35;;;;;;;4.40;1.88;;;15.10;99.90;;;;;;5049347;28;20332;-73
2023/07/18 01:10:14;;;;;;;5.50;2.20;;;15.10;99.90;;;;;;5047572;28;20645;-74
2023/07/18 01:12:40;;;;;;;4.30;1.85;;;15.00;99.90;;;;;;5048914;28;20025;-74
2023/07/18 01:15:06;;;;;;;2.47;1.17;;;15.00;99.90;;;;;;5052918;28;20512;-74
2023/07/18 01:17:33;;;;;;;3.63;1.60;;;15.00;99.90;;;;;;5053292;28;20103;-74
2023/07/18 01:20:00;;;;;;;4.47;1.25;;;14.90;99.90;;;;;;5052701;28;20021;-77
2023/07/18 01:22:25;;;;;;;4.85;1.50;;;14.90;99.90;;;;;;5053306;28;20446;-74
2023/07/18 01:24:51;;;;;;;3.63;1.23;;;14.80;99.90;;;;;;5053175;28;20037;-73
2023/07/18 01:27:17;;;;;;;5.97;1.45;;;14.90;99.90;;;;;;5052185;28;20478;-74
2023/07/18 01:29:42;;;;;;;4.88;1.65;;;14.80;99.90;;;;;;5053509;28;20021;-74
2023/07/18 01:32:08;;;;;;;7.78;1.58;;;14.80;99.90;;;;;;5053240;28;20061;-74
2023/07/18 01:34:34;;;;;;;5.15;1.33;;;14.80;99.90;;;;;;5053235;28;20477;-74
2023/07/18 01:37:00;;;;;;;6.90;1.90;;;14.80;99.90;;;;;;5052522;28;20083;-81
2023/07/18 01:39:26;;;;;;;3.55;1.60;;;14.80;99.90;;;;;;5053049;28;20482;-77
2023/07/18 01:41:52;;;;;;;2.33;1.40;;;14.80;99.90;;;;;;5053007;28;20029;-76
2023/07/18 01:44:18;;;;;;;2.47;1.30;;;14.70;99.90;;;;;;5050697;28;20942;-76
2023/07/18 01:46:44;;;;;;;5.07;1.50;;;14.70;99.90;;;;;;5052938;28;20021;-76
2023/07/18 01:49:11;;;;;;;7.72;1.70;;;14.70;99.90;;;;;;5052238;28;20060;-77
2023/07/18 01:51:37;;;;;;;3.72;1.70;;;14.70;99.90;;;;;;5051462;28;20065;-76
2023/07/18 01:54:04;;;;;;;6.85;2.30;;;14.70;99.90;;;;;;5052806;28;20466;-76
2023/07/18 01:56:29;;;;;;;3.45;1.70;;;14.70;99.90;;;;;;5055323;28;20112;-76
2023/07/18 01:58:55;;;;;;;4.60;2.20;;;14.70;99.90;;;;;;5052378;28;20479;-77
2023/07/18 02:01:21;;;;;;;4.47;1.80;;;14.70;99.90;;;;;;5051032;28;20141;-78
2023/07/18 02:03:46;;;;;;;3.65;1.63;;;14.60;99.90;;;;;;5052527;28;20029;-78
2023/07/18 02:06:12;;;;;;;2.47;1.67;;;14.60;99.90;;;;;;5051791;28;20382;-78
2023/07/18 02:08:38;;;;;;;6.35;2.05;;;14.70;99.90;;;;;;5052529;28;20069;-78
2023/07/18 02:11:04;;;;;;;6.18;1.90;;;14.60;99.90;;;;;;5052125;28;20402;-77
2023/07/18 02:13:30;;;;;;;4.80;1.52;;;14.60;99.90;;;;;;5051675;28;20112;-77
2023/07/18 02:15:55;;;;;;;5.63;1.95;;;14.50;99.90;;;;;;5052733;28;20048;-77
2023/07/18 02:18:21;;;;;;;4.38;1.55;;;14.50;99.90;;;;;;5051731;28;20025;-77
2023/07/18 02:20:47;;;;;;;5.65;1.50;;;14.50;99.90;;;;;;5051971;28;20481;-76
2023/07/18 02:23:12;;;;;;;3.70;1.35;;;14.50;99.90;;;;;;5051499;28;20025;-76
2023/07/18 02:25:38;;;;;;;2.55;1.30;;;14.50;99.90;;;;;;5051467;28;20032;-76
2023/07/18 02:28:04;;;;;;;4.57;1.45;;;14.50;99.90;;;;;;5050211;28;20049;-78
2023/07/18 02:30:30;;;;;;;1.75;1.13;;;14.40;99.90;;;;;;5052534;28;20477;-77
2023/07/18 02:32:57;;;;;;;5.80;1.42;;;14.40;99.90;;;;;;5051851;28;20466;-78
2023/07/18 02:35:23;;;;;;;6.25;2.10;;;14.40;99.90;;;;;;5051533;28;20032;-77
2023/07/18 02:37:49;;;;;;;4.72;1.60;;;14.30;99.90;;;;;;5051826;28;20017;-76
2023/07/18 02:40:17;;;;;;;4.47;1.73;;;14.30;99.90;;;;;;5051410;28;20055;-75
2023/07/18 02:42:42;;;;;;;3.00;1.42;;;14.40;99.90;;;;;;5051892;28;20052;-75
2023/07/18 02:45:09;;;;;;;6.78;2.00;;;14.30;99.90;;;;;;5050619;28;20316;-76
2023/07/18 02:47:34;;;;;;;4.05;1.80;;;14.40;99.90;;;;;;5051826;28;20032;-76
2023/07/18 02:50:00;;;;;;;3.03;1.63;;;14.30;99.90;;;;;;5052299;28;20031;-77
2023/07/18 02:52:26;;;;;;;2.33;1.38;;;14.40;99.90;;;;;;5051120;28;20025;-76
2023/07/18 02:54:53;;;;;;;3.88;1.40;;;14.40;99.90;;;;;;5051831;28;20356;-77
2023/07/18 02:57:19;;;;;;;4.78;1.77;;;14.30;99.90;;;;;;5051336;28;20399;-77
2023/07/18 02:59:45;;;;;;;4.82;1.50;;;14.30;99.90;;;;;;5051655;28;20029;-77
2023/07/18 03:02:11;;;;;;;4.65;1.80;;;14.30;99.90;;;;;;5050775;28;20032;-77
2023/07/18 03:04:37;;;;;;;5.15;1.52;;;14.30;99.90;;;;;;5051330;28;20033;-77
2023/07/18 03:07:03;;;;;;;5.63;2.10;;;14.30;99.90;;;;;;5051204;28;20459;-80
2023/07/18 03:09:33;;;;;;;3.33;1.55;;;14.30;99.90;;;;;;5051157;28;20027;-76
2023/07/18 03:11:59;;;;;;;6.30;2.25;;;14.30;99.90;;;;;;5051242;28;20033;-75
2023/07/18 03:14:25;;;;;;;4.85;1.92;;;14.30;99.90;;;;;;5050881;28;20473;-76
2023/07/18 03:16:50;;;;;;;6.55;2.35;;;14.30;99.90;;;;;;5051482;28;20032;-76
2023/07/18 03:19:16;;;;;;;4.93;2.05;;;14.40;99.90;;;;;;5050613;28;20448;-76
2023/07/18 03:21:43;;;;;;;4.18;1.70;;;14.40;99.90;;;;;;5051399;28;20029;-76
2023/07/18 03:24:09;;;;;;;4.03;1.73;;;14.40;99.90;;;;;;5050287;28;20056;-76
2023/07/18 03:26:38;;;;;;;5.10;2.53;;;14.40;99.90;;;;;;5050963;28;20470;-76
2023/07/18 03:29:07;;;;;;;5.63;2.60;;;14.40;99.90;;;;;;5051307;28;20063;-76
2023/07/18 03:31:33;;;;;;;4.03;2.03;;;14.40;99.90;;;;;;5051146;28;20496;-76
2023/07/18 03:34:00;;;;;;;4.53;1.90;;;14.40;99.90;;;;;;5051385;28;20112;-76
2023/07/18 03:36:26;;;;;;;4.93;2.17;;;14.40;99.90;;;;;;5050143;28;20033;-76
2023/07/18 03:38:52;;;;;;;4.07;2.13;;;14.30;99.90;;;;;;5051014;28;20025;-76
2023/07/18 03:41:18;;;;;;;5.03;2.25;;;14.30;99.90;;;;;;5050493;28;20029;-76
2023/07/18 03:43:44;;;;;;;4.00;2.10;;;14.30;99.90;;;;;;5050318;28;20036;-76
2023/07/18 03:46:10;;;;;;;3.65;2.20;;;14.30;99.90;;;;;;5048966;28;20029;-76
2023/07/18 03:48:37;;;;;;;5.53;2.30;;;14.20;99.90;;;;;;5049526;28;20518;-76
2023/07/18 03:51:05;;;;;;;6.22;1.95;;;14.20;99.90;;;;;;5050617;28;20039;-76
2023/07/18 03:53:32;;;;;;;2.92;1.73;;;14.20;99.90;;;;;;5050509;28;20024;-76
2023/07/18 03:56:05;;;;;;;6.63;1.88;;;14.10;99.90;;;;;;5050710;28;20064;-75
2023/07/18 03:58:32;;;;;;;5.38;1.90;;;14.10;99.90;;;;;;5049876;28;20020;-75
2023/07/18 04:00:58;;;;;;;5.07;1.73;;;14.20;99.90;;;;;;5050591;28;20112;-75
2023/07/18 04:03:23;;;;;;;6.25;1.88;;;14.20;99.90;;;;;;5049784;28;20107;-75
2023/07/18 04:05:51;;;;;;;1.85;1.45;;;14.10;99.90;;;;;;5050692;28;20044;-75
2023/07/18 04:08:18;;;;;;;3.45;1.70;;;14.10;99.90;;;;;;5050034;28;20033;-75
2023/07/18 04:10:44;;;;;;;5.40;1.70;;;14.10;99.90;;;;;;5050455;28;20021;-75
2023/07/18 04:13:10;;;;;;;5.68;2.10;;;14.10;99.90;;;;;;5049633;28;20470;-78
2023/07/18 04:15:36;;;;;;;3.50;2.05;;;14.00;99.90;;;;;;5050385;28;20057;-75
2023/07/18 04:18:02;;;;;;;4.68;2.03;;;14.00;99.90;;;;;;5050384;28;20053;-75
2023/07/18 04:20:27;;;;;;;5.65;2.65;;;13.90;99.90;;;;;;5050390;28;20147;-75
2023/07/18 04:22:53;;;;;;;4.65;2.15;;;14.00;99.90;;;;;;5050045;28;20040;-75
2023/07/18 04:25:19;;;;;;;3.80;1.98;;;14.00;99.90;;;;;;5049946;28;20079;-76
2023/07/18 04:27:47;;;;;;;2.97;1.73;;;14.10;99.90;;;;;;5050217;28;20083;-75
2023/07/18 04:30:13;;;;;;;4.65;2.30;;;14.10;99.90;;;;;;5048305;28;20488;-75
2023/07/18 04:32:41;;;;;;;5.43;1.80;;;14.00;99.90;;;;;;5050353;28;20033;-75
2023/07/18 04:35:08;;;;;;;5.60;1.92;;;14.00;99.90;;;;;;5050115;28;20041;-74
2023/07/18 04:37:33;;;;;;;5.15;1.98;;;14.00;99.90;;;;;;5049775;28;20029;-74
2023/07/18 04:39:59;;;;;;;5.10;1.50;;;14.00;99.90;;;;;;5049031;28;20025;-75
2023/07/18 04:42:25;;;;;;;3.63;1.50;;;14.00;99.90;;;;;;5049804;28;20538;-75
2023/07/18 04:44:50;;;;;;;5.18;1.83;;;14.00;99.90;;;;;;5049990;28;20036;-75
2023/07/18 04:47:16;;;;;;;2.67;1.77;;;13.90;99.90;;;;;;5049634;28;20473;-76
2023/07/18 04:49:42;;;;;;;4.43;1.92;;;13.80;99.90;;;;;;5053396;28;20025;-75
2023/07/18 04:52:07;;;;;;;5.28;1.63;;;13.70;99.90;;;;;;5052494;28;20025;-75
2023/07/18 04:54:33;;;;;;;2.80;1.50;;;13.70;99.90;;;;;;5053371;28;20036;-75
2023/07/18 04:56:59;;;;;;;5.32;1.70;;;13.70;99.90;;;;;;5053833;28;20032;-75
2023/07/18 04:59:25;;;;;;;7.07;1.58;;;13.70;99.90;;;;;;5051867;28;20048;-75
2023/07/18 05:01:53;;;;;;;6.60;2.17;;;13.70;99.90;;;;;;5053702;28;20033;-75
2023/07/18 05:04:18;;;;;;;4.68;1.60;;;13.80;99.90;;;;;;5052814;28;20497;-75
2023/07/18 05:06:44;;;;;;;3.25;1.48;;;13.90;99.90;;;;;;5053375;28;20037;-75
2023/07/18 05:09:10;;;;;;;2.80;1.55;;;13.90;99.90;;;;;;5053736;28;20086;-75
2023/07/18 05:11:35;;;;;;;2.83;2.17;;;13.90;99.90;;;;;;5053112;28;20044;-75
2023/07/18 05:14:01;;;;;;;5.43;1.90;;;13.80;99.90;;;;;;5053469;28;20047;-77
2023/07/18 05:16:27;;;;;;;3.25;1.90;;;13.90;99.90;;;;;;5052672;28;20025;-75
2023/07/18 05:18:53;;;;;;;3.83;2.13;;;13.90;99.90;;;;;;5053381;28;20039;-75
2023/07/18 05:21:19;;;;;;;5.28;1.90;;;13.80;99.90;;;;;;5052702;28;20362;-75
2023/07/18 05:23:45;;;;;;;3.58;1.70;;;13.80;99.90;;;;;;5053145;28;20116;-75
2023/07/18 05:26:11;;;;;;;2.55;1.48;;;13.70;99.90;;;;;;5053202;28;20025;-75
2023/07/18 05:28:37;;;;;;;5.22;1.70;;;13.70;99.90;;;;;;5052536;28;20406;-75
2023/07/18 05:31:07;;;;;;;3.60;1.95;;;13.80;99.90;;;;;;5053115;28;20025;-74
2023/07/18 05:33:33;;;;;;;2.10;1.77;;;13.80;99.90;;;;;;5052289;28;20120;-75
2023/07/18 05:35:59;;;;;;;8.27;2.22;;;13.80;99.90;;;;;;5052810;28;20033;-75
2023/07/18 05:38:25;;;;;;;5.63;1.90;;;13.80;99.90;;;;;;5052498;28;20482;-75
2023/07/18 05:40:51;;;;;;;5.15;2.00;;;14.00;99.90;;;;;;5053324;28;20029;-74
2023/07/18 05:43:18;;;;;;;7.05;1.80;;;13.90;99.90;;;;;;5052074;28;20025;-77
2023/07/18 05:45:44;;;;;;;6.13;2.05;;;14.00;99.90;;;;;;5052577;28;20143;-75
2023/07/18 05:48:09;;;;;;;5.07;1.70;;;14.00;99.90;;;;;;5052570;28;20051;-75
2023/07/18 05:50:35;;;;;;;4.47;1.80;;;14.00;99.90;;;;;;5052742;28;20085;-75
2023/07/18 05:53:01;;;;;;;5.43;2.30;;;14.00;99.90;;;;;;5052275;28;20024;-76
2023/07/18 05:55:27;;;;;;;3.08;1.90;;;14.00;99.90;;;;;;5051986;28;20142;-76
2023/07/18 05:57:53;;;;;;;4.95;2.20;;;14.00;99.90;;;;;;5052719;28;20021;-76
2023/07/18 06:00:20;;;;;;;5.97;2.05;;;14.10;99.90;;;;;;5050673;28;20029;-77
2023/07/18 06:02:47;;;;;;;5.63;2.40;;;14.10;99.90;;;;;;5052821;28;20043;-76
2023/07/18 06:05:14;;;;;;;3.78;1.92;;;14.10;99.90;;;;;;5052656;28;20024;-77
2023/07/18 06:07:40;;;;;;;4.03;1.85;;;14.10;99.90;;;;;;5052120;28;20095;-77
2023/07/18 06:10:06;;;;;;;6.95;2.50;;;14.10;99.90;;;;;;5052331;28;20041;-77
2023/07/18 06:12:31;;;;;;;4.35;2.20;;;14.10;99.90;;;;;;5050139;28;20048;-77
2023/07/18 06:14:57;;;;;;;5.13;2.25;;;14.10;99.90;;;;;;5051764;28;20461;-77
2023/07/18 06:17:23;;;;;;;3.03;2.28;;;14.10;99.90;;;;;;5051070;28;20029;-77
2023/07/18 06:19:48;;;;;;;6.25;2.38;;;14.20;99.90;;;;;;5052013;28;20052;-76
2023/07/18 06:22:14;;;;;;;5.25;3.00;;;14.20;99.90;;;;;;5052533;28;20040;-77
2023/07/18 06:24:41;;;;;;;3.03;2.33;;;14.20;99.90;;;;;;5051792;28;20386;-77
2023/07/18 06:27:07;;;;;;;5.30;2.50;;;14.20;99.90;;;;;;5052075;28;20033;-77
2023/07/18 06:29:33;;;;;;;7.05;2.70;;;14.20;99.90;;;;;;5052021;28;20032;-76
2023/07/18 06:32:00;;;;;;;4.20;2.33;;;14.30;99.90;;;;;;5052384;28;20036;-75
2023/07/18 06:34:30;;;;;;;4.35;2.03;;;14.30;99.90;;;;;;5051697;28;20036;-76
2023/07/18 06:36:59;;;;;;;5.85;2.55;;;14.30;99.90;;;;;;5052360;28;20110;-76
2023/07/18 06:39:26;;;;;;;3.45;1.85;;;14.30;99.90;;;;;;5051466;28;20120;-76
2023/07/18 06:41:52;;;;;;;5.60;2.40;;;14.30;99.90;;;;;;5051842;28;20068;-76
2023/07/18 06:44:18;;;;;;;3.30;1.73;;;14.30;99.90;;;;;;5051824;28;20057;-77
2023/07/18 06:46:45;;;;;;;3.17;1.70;;;14.40;99.90;;;;;;5051253;28;20036;-76
2023/07/18 06:49:13;;;;;;;4.05;2.00;;;14.40;99.90;;;;;;5051824;28;20029;-76
2023/07/18 06:51:38;;;;;;;3.13;1.70;;;14.40;99.90;;;;;;5051110;28;20609;-77
2023/07/18 06:54:04;;;;;;;4.38;2.80;;;14.30;99.90;;;;;;5051374;28;20037;-76
2023/07/18 06:56:30;;;;;;;5.35;2.42;;;14.30;99.90;;;;;;5051205;28;20516;-77
2023/07/18 06:58:55;;;;;;;4.38;2.10;;;14.40;99.90;;;;;;5051252;28;20094;-76
2023/07/18 07:01:21;;;;;;;6.25;2.03;;;14.40;99.90;;;;;;5050870;28;20395;-79
2023/07/18 07:03:47;;;;;;;2.90;1.75;;;14.30;99.90;;;;;;5050339;28;20033;-75
2023/07/18 07:06:13;;;;;;;3.70;2.00;;;14.20;99.90;;;;;;5051811;28;20025;-75
2023/07/18 07:08:39;;;;;;;5.60;1.80;;;14.10;99.90;;;;;;5051070;28;20025;-75
2023/07/18 07:11:07;;;;;;;5.53;1.95;;;14.10;99.90;;;;;;5050748;28;20359;-76
2023/07/18 07:13:34;;;;;;;3.78;1.95;;;14.00;99.90;;;;;;5050562;28;20028;-75
2023/07/18 07:16:00;;;;;;;5.38;1.73;;;14.10;99.90;;;;;;5051475;28;20450;-75
2023/07/18 07:18:26;;;;;;;4.78;2.33;;;14.10;99.90;;;;;;5050330;28;20033;-75
2023/07/18 07:20:53;;;;;;;4.60;2.08;;;14.20;99.90;;;;;;5050882;28;20040;-75
2023/07/18 07:23:19;;;;;;;5.35;1.95;;;14.10;99.90;;;;;;5051532;28;20064;-75
2023/07/18 07:25:44;;;;;;;6.50;2.58;;;14.20;99.90;;;;;;5050599;28;20061;-75
2023/07/18 07:28:10;;;;;;;4.63;2.15;;;14.20;99.90;;;;;;5051224;28;20045;-75
2023/07/18 07:30:36;;;;;;;3.38;1.73;;;14.30;99.90;;;;;;5050377;28;20379;-74
2023/07/18 07:33:10;;;;;;;4.72;1.80;;;14.30;99.90;;;;;;5050706;28;20146;-75
2023/07/18 07:35:36;;;;;;;6.38;2.00;;;14.30;99.90;;;;;;5050580;28;20029;-75
2023/07/18 07:38:02;;;;;;;5.03;1.70;;;14.30;99.90;;;;;;5050786;28;20021;-74
2023/07/18 07:40:27;;;;;;;3.58;1.65;;;14.30;99.90;;;;;;5050525;28;20025;-74
2023/07/18 07:42:53;;;;;;;4.50;1.70;;;14.30;99.90;;;;;;5050962;28;20128;-75
2023/07/18 07:45:20;;;;;;;3.20;1.55;;;14.20;99.90;;;;;;5050780;28;20022;-75
2023/07/18 07:47:47;;;;;;;5.15;2.13;;;14.20;99.90;;;;;;5050264;28;20025;-74
2023/07/18 07:50:13;;;;;;;6.70;2.13;;;14.30;99.90;;;;;;5051005;28;20032;-75
2023/07/18 07:52:39;;;;;;;4.80;2.08;;;14.30;99.90;;;;;;5050078;28;20029;-74
2023/07/18 07:55:05;;;;;;;4.63;2.10;;;14.30;99.90;;;;;;5049448;28;20059;-73
2023/07/18 07:57:31;;;;;;;9.15;3.95;;;14.20;99.90;;;;;;5050093;28;20119;-74
2023/07/18 07:59:57;;;;;;;8.30;3.30;;;14.30;99.90;;;;;;5050825;28;20112;-75
2023/07/18 08:02:23;;;;;;;7.95;2.90;;;14.20;99.90;;;;;;5050773;28;20033;-76
2023/07/18 08:04:49;;;;;;;3.88;2.17;;;14.30;99.90;;;;;;5049640;28;20029;-75
2023/07/18 08:07:16;;;;;;;4.45;2.50;;;14.40;99.90;;;;;;5050631;28;20115;-75
2023/07/18 08:09:42;;;;;;;4.20;1.75;;;14.40;99.90;;;;;;5049245;28;20128;-75
2023/07/18 08:12:09;;;;;;;1.92;1.35;;;14.40;99.90;;;;;;5050569;28;20108;-74
2023/07/18 08:14:37;;;;;;;3.22;1.65;;;14.50;99.90;;;;;;5049926;28;20041;-74
2023/07/18 08:17:04;;;;;;;2.00;1.50;;;14.60;99.90;;;;;;5050417;28;20459;-74
2023/07/18 08:19:36;;;;;;;4.70;1.50;;;14.70;99.90;;;;;;5048362;28;20044;-75
2023/07/18 08:22:03;;;;;;;2.60;1.80;;;14.70;99.90;;;;;;5050287;28;20033;-75
2023/07/18 08:24:30;;;;;;;5.93;1.70;;;14.70;99.90;;;;;;5052908;28;20025;-76
2023/07/18 08:26:56;;;;;;;2.50;1.83;;;14.80;99.90;;;;;;5054650;28;20053;-75
2023/07/18 08:29:27;;;;;;;5.53;1.58;;;14.90;99.90;;;;;;5034217;28;20053;-75
2023/07/18 08:31:54;;;;;;;3.25;1.60;;;14.90;99.90;;;;;;5034544;28;20041;-75
2023/07/18 08:34:20;;;;;;;5.28;1.75;;;15.10;99.90;;;;;;5033851;28;20061;-75
2023/07/18 08:36:47;;;;;;;1.85;1.00;;;15.20;99.90;;;;;;5033739;28;20700;-75
2023/07/18 08:39:13;;;;;;;3.83;1.40;;;15.40;99.90;;;;;;5034094;28;20061;-75
2023/07/18 08:41:43;;;;;;;5.63;1.50;;;15.60;99.90;;;;;;5033479;28;20351;-75
2023/07/18 08:44:12;;;;;;;4.38;1.70;;;15.40;99.90;;;;;;5033979;28;20460;-75
2023/07/18 08:46:38;;;;;;;3.40;1.40;;;15.30;99.90;;;;;;5033693;28;20022;-75
2023/07/18 08:49:05;;;;;;;2.22;1.00;;;15.40;99.90;;;;;;5034669;28;20055;-75
2023/07/18 08:51:31;;;;;;;1.58;1.17;;;15.40;99.90;;;;;;5033262;28;20048;-74
2023/07/18 08:53:57;;;;;;;5.28;1.30;;;15.40;99.90;;;;;;5033750;28;20034;-74
2023/07/18 08:56:24;;;;;;;2.83;1.15;;;15.40;99.90;;;;;;5033824;28;20073;-74
2023/07/18 08:58:50;;;;;;;2.80;1.10;;;15.50;99.90;;;;;;5033945;28;20029;-81
2023/07/18 09:01:16;;;;;;;2.33;1.13;;;15.50;99.90;;;;;;5034901;28;20095;-76
2023/07/18 09:03:42;;;;;;;3.00;1.42;;;15.60;99.90;;;;;;5033721;28;20477;-75
2023/07/18 09:06:19;;;;;;;1.90;1.17;;;15.40;99.90;;;;;;5033858;28;20136;-75
2023/07/18 09:08:45;;;;;;;2.50;1.30;;;15.30;99.90;;;;;;5033106;28;20112;-75
2023/07/18 09:11:12;;;;;;;3.72;1.30;;;15.30;99.90;;;;;;5033791;28;20057;-75
2023/07/18 09:13:39;;;;;;;6.93;1.65;;;15.20;99.90;;;;;;5033047;28;20492;-75
2023/07/18 09:16:22;;;;;;;3.60;1.17;;;15.10;99.90;;;;;;5033793;28;20037;-75
2023/07/18 09:18:52;;;;;;;3.38;1.10;;;15.10;99.90;;;;;;5033431;28;20071;-75
2023/07/18 09:21:19;;;;;;;2.30;1.10;;;15.00;99.90;;;;;;5033704;28;20049;-74
2023/07/18 09:23:46;;;;;;;2.67;1.10;;;15.00;99.90;;;;;;5033197;28;20033;-74
2023/07/18 09:26:21;;;;;;;1.35;0.80;;;14.90;99.90;;;;;;5033416;28;20379;-75
2023/07/18 09:28:48;;;;;;;2.60;1.10;;;14.90;99.90;;;;;;5048294;28;20045;-74
2023/07/18 09:31:18;;;;;;;1.10;0.88;;;14.80;99.90;;;;;;5053316;28;20033;-74
2023/07/18 09:33:46;;;;;;;1.30;0.57;;;14.80;99.90;;;;;;5052442;28;20043;-74
2023/07/18 09:36:18;;;;;;;1.25;0.98;;;14.80;99.90;;;;;;5053073;28;20037;-75
2023/07/18 09:38:46;;;;;;;2.47;1.40;;;14.80;99.90;;;;;;5052732;28;20450;-76
2023/07/18 09:41:19;;;;;;;3.85;1.33;;;14.90;99.90;;;;;;5053632;28;20091;-75
2023/07/18 09:43:45;;;;;;;;;;;15.00;99.90;;;;;;5053750;28;20112;-75
2023/07/18 09:46:15;;;;;;;1.45;1.10;;;15.10;99.90;;;;;;5053514;28;20003;-76
2023/07/18 09:48:42;;;;;;;5.03;1.08;;;15.10;99.90;;;;;;5052831;28;20099;-76
2023/07/18 09:51:10;;;;;;;1.08;0.70;;;15.00;99.90;;;;;;5053186;28;20025;-74
2023/07/18 09:53:37;;;;;;;3.03;0.93;;;15.00;99.90;;;;;;5052272;28;20434;-76
2023/07/18 09:56:05;;;;;;;2.25;1.05;;;14.90;99.90;;;;;;5052826;28;20108;-76
2023/07/18 09:58:35;;;;;;;3.63;1.58;;;15.00;99.90;;;;;;5053037;28;20112;-81
2023/07/18 10:01:01;;;;;;;2.08;0.90;;;15.10;99.90;;;;;;5052930;28;20474;-76
2023/07/18 10:03:31;;;;;;;2.10;1.08;;;15.20;99.90;;;;;;5053134;28;20037;-77
2023/07/18 10:05:57;;;;;;;3.25;1.15;;;15.20;99.90;;;;;;5052656;28;20032;-77
2023/07/18 10:08:23;;;;;;;2.08;1.02;;;15.20;99.90;;;;;;5052544;28;20025;-76
2023/07/18 10:11:07;;;;;;;5.05;1.20;;;15.20;99.90;;;;;;5052147;28;20060;-76
2023/07/18 10:13:56;;;;;;;4.05;1.15;;;15.30;99.90;;;;;;5052171;28;20139;-80
2023/07/18 10:16:23;;;;;;;4.50;1.20;;;15.10;99.90;;;;;;5051955;28;20132;-76
2023/07/18 10:18:52;;;;;;;5.70;1.33;;;15.20;99.90;;;;;;5052260;28;20417;-78
2023/07/18 10:21:46;;;;;;;2.63;1.35;;;15.10;99.90;;;;;;5052718;28;20033;-76
2023/07/18 10:24:24;;;;;;;3.58;1.80;;;15.00;99.90;;;;;;5043275;28;20030;-78
2023/07/18 10:27:00;;;;;;;2.72;1.63;;;15.10;99.90;;;;;;5051538;28;20021;-75
2023/07/18 10:29:31;;;;;;;4.50;1.80;;;15.10;99.90;;;;;;5051770;28;20111;-74
2023/07/18 10:32:00;;;;;;;3.42;2.03;;;15.10;99.90;;;;;;5051022;28;20078;-73
2023/07/18 10:34:25;;;;;;;4.18;1.67;;;15.20;99.90;;;;;;5051374;28;20036;-73
2023/07/18 10:36:59;;;;;;;2.03;1.35;;;15.30;99.90;;;;;;5049939;28;20032;-74
2023/07/18 10:39:40;;;;;;;4.13;1.50;;;15.40;99.90;;;;;;5052185;28;20032;-74
2023/07/18 10:42:20;;;;;;;2.40;1.33;;;15.40;99.90;;;;;;5051989;28;20121;-74
2023/07/18 10:44:52;;;;;;;1.23;1.10;;;15.40;99.90;;;;;;5051337;28;20463;-74
2023/07/18 10:47:19;;;;;;;3.13;1.20;;;15.50;99.90;;;;;;5050790;28;20021;-74
2023/07/18 10:49:47;;;;;;;2.25;1.05;;;15.40;99.90;;;;;;5051542;28;20029;-74
2023/07/18 10:52:13;;;;;;;3.15;0.73;;;15.50;99.90;;;;;;5051513;28;20059;-73
2023/07/18 10:54:51;;;;;;;2.17;0.80;;;15.60;99.90;;;;;;5050410;28;20056;-74
2023/07/18 10:57:23;;;;;;;2.92;0.90;;;15.70;99.90;;;;;;5051406;28;20029;-73
2023/07/18 10:59:51;;;;;;;2.78;1.05;;;15.70;99.90;;;;;;5050377;28;20029;-74
2023/07/18 11:02:17;;;;;;;2.35;0.95;;;15.80;99.90;;;;;;5050845;28;20335;-72
2023/07/18 11:04:44;;;;;;;4.20;1.10;;;15.90;99.90;;;;;;5050197;28;20040;-74
2023/07/18 11:07:10;;;;;;;3.20;1.15;;;15.90;99.90;;;;;;5050818;28;20095;-73
2023/07/18 11:09:36;;;;;;;2.92;0.82;;;15.80;99.90;;;;;;5050280;28;20072;-79
2023/07/18 11:12:03;;;;;;;4.68;1.30;;;15.90;99.90;;;;;;5050228;28;20036;-73
2023/07/18 11:14:38;;;;;;;4.78;1.00;;;15.90;99.90;;;;;;5050693;28;20044;-74
2023/07/18 11:17:18;;;;;;;3.83;1.15;;;16.10;99.90;;;;;;5050722;28;20025;-73
2023/07/18 11:19:46;;;;;;;1.98;1.05;;;16.10;99.90;;;;;;5050245;28;20036;-73
2023/07/18 11:22:16;;;;;;;1.98;1.13;;;16.20;99.90;;;;;;5048937;28;20040;-73
2023/07/18 11:24:47;;;;;;;2.85;0.90;;;16.40;99.90;;;;;;5050017;28;20025;-73
2023/07/18 11:27:23;;;;;;;1.20;0.90;;;16.40;99.90;;;;;;5049980;28;20098;-73
2023/07/18 11:29:56;;;;;;;0.80;0.60;;;16.50;99.90;;;;;;5049728;28;20095;-73
2023/07/18 11:32:40;;;;;;;2.05;0.98;;;16.80;99.90;;;;;;5050637;28;20032;-73
2023/07/18 11:35:12;;;;;;;1.95;0.80;;;17.10;99.90;;;;;;5050905;28;20072;-72
2023/07/18 11:37:46;;;;;;;1.70;0.70;;;17.40;99.90;;;;;;5050825;28;20068;-77
2023/07/18 11:40:23;;;;;;;5.30;0.50;;;17.40;99.90;;;;;;5050048;28;20462;-72
2023/07/18 11:42:58;;;;;;;1.73;0.50;;;17.50;99.90;;;;;;5050369;28;20036;-72
2023/07/18 11:45:28;;;;;;;1.10;0.60;;;17.60;99.90;;;;;;5051072;28;20104;-71
2023/07/18 11:47:56;;;;;;;0.30;0.30;;;17.60;99.90;;;;;;5048928;28;20526;-71
2023/07/18 11:50:25;;;;;;;0.50;0.30;;;17.60;99.90;;;;;;5050854;28;20032;-73
2023/07/18 11:52:52;;;;;;;0.43;0.43;;;17.60;99.90;;;;;;5049525;28;20027;-74
2023/07/18 11:55:20;;;;;;;0.85;0.50;;;17.50;99.90;;;;;;5049829;28;20079;-74
2023/07/18 11:57:48;;;;;;;0.25;0.25;;;17.50;99.90;;;;;;5049521;28;20088;-74
2023/07/18 12:00:17;;;;;;;1.45;0.60;;;17.60;99.90;;;;;;5050390;28;20071;-74
2023/07/18 12:02:44;;;;;;;1.92;0.70;;;17.70;99.90;;;;;;5049133;28;20060;-74
2023/07/18 12:05:11;;;;;;;0.70;0.70;;;17.80;99.90;;;;;;5049845;28;20025;-74
2023/07/18 12:07:37;;;;;;;0.93;0.57;;;17.90;99.90;;;;;;5049444;28;20025;-73
2023/07/18 12:10:07;;;;;;;2.53;0.75;;;18.00;99.90;;;;;;5049603;28;20477;-74
2023/07/18 12:12:39;;;;;;;1.10;0.73;;;18.20;99.90;;;;;;5049903;28;20143;-73
2023/07/18 12:15:06;;;;;;;1.77;0.65;;;18.30;99.90;;;;;;5049857;28;20100;-73
2023/07/18 12:17:32;;;;;;;1.35;0.82;;;18.20;99.90;;;;;;5050230;28;20025;-73
2023/07/18 12:19:58;;;;;;;1.00;0.57;;;18.20;99.90;;;;;;5049634;28;20170;-73
2023/07/18 12:22:24;;;;;;;0.60;0.38;;;18.00;99.90;;;;;;5049805;28;20040;-73
2023/07/18 12:24:50;;;;;;;2.55;0.30;;;18.10;99.90;;;;;;5049497;28;20025;-74
2023/07/18 12:27:16;;;;;;;0.93;0.32;;;18.30;99.90;;;;;;5049935;28;20033;-74
2023/07/18 12:29:42;;;;;;;1.65;0.50;;;18.50;99.90;;;;;;5049411;28;20033;-75
2023/07/18 12:32:09;;;;;;;1.67;0.70;;;18.60;99.90;;;;;;5050070;28;20339;-74
2023/07/18 12:34:39;;;;;;;1.02;0.50;;;18.90;99.90;;;;;;5050049;28;20275;-74
2023/07/18 12:37:05;;;;;;;1.35;0.60;;;18.80;99.90;;;;;;5049759;28;20044;-73
2023/07/18 12:39:31;;;;;;;1.35;0.45;;;18.80;99.90;;;;;;5049917;28;20097;-73
2023/07/18 12:41:57;;;;;;;0.75;0.52;;;18.50;99.90;;;;;;5049101;28;20057;-74
2023/07/18 12:44:39;;;;;;;1.35;0.98;;;18.40;99.90;;;;;;5049834;28;20027;-74
2023/07/18 12:47:06;;;;;;;0.63;0.40;;;18.60;99.90;;;;;;5050003;28;20025;-74
2023/07/18 12:49:33;;;;;;;1.98;0.68;;;18.70;99.90;;;;;;5049956;28;20037;-74